createdAt,value
2022-09-28T00:00:43.330Z,24.80
2022-09-28T00:03:11.235Z,24.80
2022-09-28T00:05:38.980Z,24.90
2022-09-28T00:08:06.979Z,25.20
2022-09-28T00:10:34.801Z,25.30
2022-09-28T00:13:02.621Z,25.20
2022-09-28T00:15:30.406Z,25.10
2022-09-28T00:17:58.242Z,25.10
2022-09-28T00:20:26.186Z,25.10
2022-09-28T00:22:54.094Z,25.20
2022-09-28T00:25:24.905Z,25.00
2022-09-28T00:27:52.754Z,24.90
2022-09-28T00:30:20.872Z,24.70
2022-09-28T00:32:48.851Z,24.60
2022-09-28T00:35:16.862Z,24.70
2022-09-28T00:37:44.667Z,24.70
2022-09-28T00:40:12.742Z,24.80
2022-09-28T00:42:40.631Z,24.80
2022-09-28T00:45:09.495Z,24.70
2022-09-28T00:47:37.393Z,24.70
2022-09-28T00:50:08.348Z,24.70
2022-09-28T00:52:41.982Z,24.60
2022-09-28T00:55:13.001Z,24.50
2022-09-28T00:57:43.013Z,24.80
2022-09-28T01:00:11.186Z,24.80
2022-09-28T01:02:40.201Z,24.80
2022-09-28T01:05:09.600Z,24.70
2022-09-28T01:07:38.014Z,24.70
2022-09-28T01:10:06.392Z,24.80
2022-09-28T01:12:34.410Z,24.80
2022-09-28T01:15:03.244Z,24.70
2022-09-28T01:17:40.164Z,24.80
2022-09-28T01:20:29.265Z,24.90
2022-09-28T01:23:03.244Z,25.00
2022-09-28T01:25:54.524Z,24.90
2022-09-28T01:28:25.230Z,24.80
2022-09-28T01:31:12.908Z,24.50
2022-09-28T01:33:45.864Z,24.80
2022-09-28T01:36:35.138Z,24.90
2022-09-28T01:39:06.076Z,25.00
2022-09-28T01:41:35.962Z,25.00
2022-09-28T01:44:06.331Z,24.70
2022-09-28T01:46:38.665Z,24.70
2022-09-28T01:49:09.896Z,24.70
2022-09-28T01:51:40.739Z,24.60
2022-09-28T01:54:19.342Z,24.60
2022-09-28T01:56:53.377Z,24.80
2022-09-28T01:59:33.529Z,24.90
2022-09-28T02:05:20.398Z,24.80
2022-09-28T02:07:59.208Z,24.80
2022-09-28T02:10:31.195Z,24.80
2022-09-28T02:13:01.634Z,24.90
2022-09-28T02:15:34.319Z,25.00
2022-09-28T02:18:02.536Z,25.20
2022-09-28T02:20:32.100Z,25.10
2022-09-28T02:23:00.235Z,25.10
2022-09-28T02:25:37.440Z,25.00
2022-09-28T02:28:07.064Z,25.00
2022-09-28T02:30:37.602Z,24.80
2022-09-28T02:33:08.577Z,25.00
2022-09-28T02:35:37.636Z,25.10
2022-09-28T02:38:05.485Z,25.20
2022-09-28T02:40:34.312Z,25.10
2022-09-28T02:43:14.630Z,25.00
2022-09-28T02:45:52.920Z,24.80
2022-09-28T02:48:44.211Z,24.80
2022-09-28T02:51:31.920Z,25.00
2022-09-28T02:54:35.278Z,25.20
2022-09-28T02:57:03.234Z,25.20
2022-09-28T02:59:44.475Z,25.10
2022-09-28T03:02:18.272Z,25.00
2022-09-28T03:04:52.174Z,24.90
2022-09-28T03:07:54.188Z,24.90
2022-09-28T03:10:28.201Z,24.90
2022-09-28T03:12:57.324Z,25.00
2022-09-28T03:15:27.222Z,25.20
2022-09-28T03:17:57.431Z,25.20
2022-09-28T03:20:26.077Z,25.10
2022-09-28T03:23:19.704Z,25.00
2022-09-28T03:25:48.659Z,24.80
2022-09-28T03:28:16.385Z,24.80
2022-09-28T03:30:44.298Z,24.90
2022-09-28T03:33:12.242Z,25.00
2022-09-28T03:35:40.355Z,25.00
2022-09-28T03:38:08.279Z,25.00
2022-09-28T03:40:38.918Z,24.90
2022-09-28T03:43:07.126Z,24.90
2022-09-28T03:45:35.472Z,24.80
2022-09-28T03:48:03.525Z,24.80
2022-09-28T03:50:31.642Z,24.90
2022-09-28T03:53:02.548Z,24.80
2022-09-28T03:55:30.373Z,24.80
2022-09-28T03:57:58.357Z,24.80
2022-09-28T04:00:26.338Z,24.80
2022-09-28T04:02:54.351Z,24.70
2022-09-28T04:05:22.294Z,24.60
2022-09-28T04:07:50.240Z,24.60
2022-09-28T04:10:18.161Z,24.70
2022-09-28T04:12:46.082Z,24.70
2022-09-28T04:15:15.371Z,24.50
2022-09-28T04:17:43.530Z,24.50
2022-09-28T04:20:24.591Z,24.60
2022-09-28T04:23:13.537Z,24.80
2022-09-28T04:25:41.459Z,24.70
2022-09-28T04:28:09.626Z,24.70
2022-09-28T04:30:37.745Z,24.70
2022-09-28T04:33:05.713Z,24.60
2022-09-28T04:35:33.610Z,24.60
2022-09-28T04:38:02.797Z,24.60
2022-09-28T04:40:31.527Z,24.60
2022-09-28T04:42:59.657Z,24.50
2022-09-28T04:45:27.798Z,24.80
2022-09-28T04:48:01.646Z,24.80
2022-09-28T04:50:53.491Z,24.70
2022-09-28T04:53:23.577Z,24.70
2022-09-28T04:56:02.494Z,24.80
2022-09-28T04:58:31.280Z,24.70
2022-09-28T05:01:00.836Z,24.70
2022-09-28T05:03:48.655Z,24.70
2022-09-28T05:06:36.961Z,24.90
2022-09-28T05:09:09.370Z,24.90
2022-09-28T05:11:37.309Z,25.00
2022-09-28T05:14:11.212Z,25.10
2022-09-28T05:16:40.479Z,24.90
2022-09-28T05:19:23.247Z,24.80
2022-09-28T05:21:52.350Z,24.70
2022-09-28T05:24:20.082Z,24.60
2022-09-28T05:26:51.880Z,24.60
2022-09-28T05:29:20.282Z,24.60
2022-09-28T05:31:50.796Z,24.60
2022-09-28T05:34:27.813Z,24.60
2022-09-28T05:36:55.980Z,24.70
2022-09-28T05:39:23.811Z,24.70
2022-09-28T05:41:51.694Z,24.50
2022-09-28T05:44:19.659Z,24.50
2022-09-28T05:46:48.935Z,24.50
2022-09-28T05:49:19.607Z,24.50
2022-09-28T05:51:48.403Z,24.50
2022-09-28T05:54:16.562Z,24.40
2022-09-28T05:56:47.272Z,24.60
2022-09-28T05:59:15.707Z,24.70
2022-09-28T06:01:43.556Z,24.80
2022-09-28T06:04:12.375Z,24.80
2022-09-28T06:06:42.801Z,25.00
2022-09-28T06:09:10.965Z,24.80
2022-09-28T06:11:59.257Z,24.70
2022-09-28T06:14:40.142Z,24.70
2022-09-28T06:17:08.182Z,24.50
2022-09-28T06:19:36.101Z,24.40
2022-09-28T06:22:17.217Z,24.40
2022-09-28T06:25:05.535Z,24.30
2022-09-28T06:27:34.228Z,24.60
2022-09-28T06:30:02.172Z,24.60
2022-09-28T06:32:30.051Z,24.60
2022-09-28T06:34:58.309Z,24.50
2022-09-28T06:37:27.305Z,24.40
2022-09-28T06:39:56.055Z,24.40
2022-09-28T06:42:24.657Z,24.40
2022-09-28T06:45:15.008Z,24.40
2022-09-28T06:48:12.031Z,24.40
2022-09-28T06:50:41.722Z,24.60
2022-09-28T06:53:28.452Z,24.70
2022-09-28T06:55:59.566Z,24.70
2022-09-28T06:58:28.897Z,24.70
2022-09-28T07:00:58.856Z,24.70
2022-09-28T07:03:27.928Z,24.60
2022-09-28T07:06:13.979Z,24.70
2022-09-28T07:09:05.731Z,24.70
2022-09-28T07:12:00.429Z,24.70
2022-09-28T07:14:54.666Z,24.70
2022-09-28T07:17:23.432Z,24.80
2022-09-28T07:19:52.296Z,24.90
2022-09-28T07:22:31.500Z,25.10
2022-09-28T07:25:07.134Z,25.20
2022-09-28T07:27:43.715Z,25.10
2022-09-28T07:30:28.234Z,25.00
2022-09-28T07:33:19.152Z,24.90
2022-09-28T07:35:55.857Z,24.80
2022-09-28T07:38:28.279Z,25.00
2022-09-28T07:40:57.445Z,25.00
2022-09-28T07:43:26.356Z,25.10
2022-09-28T07:45:54.549Z,25.30
2022-09-28T07:48:23.167Z,25.40
2022-09-28T07:51:04.756Z,25.60
2022-09-28T07:54:11.139Z,25.50
2022-09-28T07:56:59.112Z,25.70
2022-09-28T07:59:38.927Z,25.90
2022-09-28T08:02:38.851Z,26.10
2022-09-28T08:05:07.078Z,26.20
2022-09-28T08:07:35.065Z,26.20
2022-09-28T08:10:06.077Z,26.00
2022-09-28T08:12:59.142Z,25.90
2022-09-28T08:15:48.263Z,26.20
2022-09-28T08:18:36.797Z,26.20
2022-09-28T08:21:06.504Z,26.00
2022-09-28T08:23:34.370Z,25.90
2022-09-28T08:26:02.182Z,25.90
2022-09-28T08:28:30.309Z,25.80
2022-09-28T08:31:02.779Z,25.90
2022-09-28T08:33:53.948Z,25.90
2022-09-28T08:36:40.228Z,25.90
2022-09-28T08:39:29.372Z,26.00
2022-09-28T08:42:15.536Z,26.20
2022-09-28T08:45:08.519Z,26.30
2022-09-28T08:48:09.029Z,26.80
2022-09-28T08:51:05.338Z,28.80
2022-09-28T08:54:25.155Z,29.10
2022-09-28T08:56:59.765Z,28.20
2022-09-28T08:59:58.098Z,28.30
2022-09-28T09:02:32.355Z,29.50
2022-09-28T09:05:21.768Z,32.00
2022-09-28T09:08:24.571Z,32.00
2022-09-28T09:10:52.933Z,32.50
2022-09-28T09:13:35.781Z,32.40
2022-09-28T09:16:23.635Z,34.80
2022-09-28T09:19:06.871Z,33.80
2022-09-28T09:21:54.882Z,33.60
2022-09-28T09:24:25.442Z,32.80
2022-09-28T09:26:59.946Z,32.40
2022-09-28T09:29:52.270Z,31.10
2022-09-28T09:32:20.300Z,30.50
2022-09-28T09:34:49.009Z,29.80
2022-09-28T09:37:58.337Z,29.70
2022-09-28T09:40:47.586Z,29.90
2022-09-28T09:43:36.733Z,30.50
2022-09-28T09:46:38.028Z,30.50
2022-09-28T09:49:20.946Z,30.50
2022-09-28T09:52:04.195Z,31.10
2022-09-28T09:54:32.207Z,30.40
2022-09-28T09:57:05.264Z,30.90
2022-09-28T09:59:49.178Z,31.20
2022-09-28T10:02:33.308Z,32.00
2022-09-28T10:05:12.555Z,31.30
2022-09-28T10:07:48.025Z,30.80
2022-09-28T10:10:22.013Z,30.60
2022-09-28T10:12:53.247Z,30.20
2022-09-28T10:15:26.503Z,30.10
2022-09-28T10:18:27.777Z,29.80
2022-09-28T10:21:18.097Z,29.50
2022-09-28T10:24:00.100Z,29.70
2022-09-28T10:26:40.528Z,29.00
2022-09-28T10:29:15.199Z,29.50
2022-09-28T10:31:43.424Z,29.10
2022-09-28T10:34:28.282Z,29.00
2022-09-28T10:37:04.760Z,29.10
2022-09-28T10:39:45.555Z,29.50
2022-09-28T10:42:19.658Z,29.60
2022-09-28T10:44:55.726Z,29.00
2022-09-28T10:47:44.058Z,28.80
2022-09-28T10:50:28.554Z,28.90
2022-09-28T10:53:12.568Z,28.90
2022-09-28T10:56:07.131Z,28.70
2022-09-28T10:58:40.581Z,28.60
2022-09-28T11:01:15.467Z,28.60
2022-09-28T11:03:49.606Z,28.50
2022-09-28T11:06:24.318Z,28.60
2022-09-28T11:08:54.102Z,28.70
2022-09-28T11:11:22.680Z,28.50
2022-09-28T11:14:02.871Z,28.70
2022-09-28T11:16:36.703Z,28.90
2022-09-28T11:21:44.283Z,29.30
2022-09-28T11:24:19.124Z,29.10
2022-09-28T11:26:51.824Z,29.30
2022-09-28T11:29:35.352Z,29.70
2022-09-28T11:32:18.854Z,29.90
2022-09-28T11:35:05.574Z,30.50
2022-09-28T11:37:51.692Z,30.50
2022-09-28T11:41:00.252Z,30.80
2022-09-28T11:43:37.333Z,30.50
2022-09-28T11:46:20.427Z,30.40
2022-09-28T11:48:55.657Z,30.40
2022-09-28T11:51:36.879Z,30.70
2022-09-28T11:54:15.200Z,30.70
2022-09-28T11:56:50.737Z,30.70
2022-09-28T11:59:29.351Z,31.20
2022-09-28T12:02:03.812Z,31.30
2022-09-28T12:05:08.234Z,31.40
2022-09-28T12:07:43.221Z,31.00
2022-09-28T12:10:45.738Z,30.80
2022-09-28T12:13:21.726Z,30.40
2022-09-28T12:16:32.729Z,29.30
2022-09-28T12:18:50.438Z,28.60
2022-09-28T12:21:34.205Z,28.20
2022-09-28T12:24:22.617Z,28.00
2022-09-28T12:27:44.063Z,27.80
2022-09-28T12:30:23.204Z,27.60
2022-09-28T12:33:15.367Z,27.50
2022-09-28T12:35:49.649Z,27.40
2022-09-28T12:38:45.984Z,28.10
2022-09-28T12:41:22.500Z,28.20
2022-09-28T12:44:17.745Z,28.40
2022-09-28T12:47:07.284Z,28.40
2022-09-28T12:52:54.733Z,29.10
2022-09-28T12:55:47.445Z,28.90
2022-09-28T12:58:37.090Z,29.30
2022-09-28T13:01:35.922Z,29.40
2022-09-28T13:04:11.416Z,29.80
2022-09-28T13:06:53.917Z,29.60
2022-09-28T13:09:23.447Z,29.40
2022-09-28T13:11:51.588Z,29.10
2022-09-28T13:14:42.839Z,28.80
2022-09-28T13:17:38.516Z,28.60
2022-09-28T13:20:29.908Z,28.80
2022-09-28T13:23:13.972Z,28.90
2022-09-28T13:25:47.263Z,29.40
2022-09-28T13:28:20.090Z,29.60
2022-09-28T13:30:50.723Z,29.30
2022-09-28T13:33:31.293Z,29.30
2022-09-28T13:35:59.757Z,29.70
2022-09-28T13:38:44.042Z,29.60
2022-09-28T13:41:15.968Z,30.30
2022-09-28T13:43:47.800Z,30.40
2022-09-28T13:46:37.845Z,30.70
2022-09-28T13:49:21.300Z,29.90
2022-09-28T13:52:10.018Z,29.50
2022-09-28T13:54:57.038Z,30.20
2022-09-28T13:57:42.660Z,29.80
2022-09-28T14:00:31.015Z,30.10
2022-09-28T14:03:37.742Z,29.90
2022-09-28T14:06:28.500Z,30.00
2022-09-28T14:08:59.603Z,30.00
2022-09-28T14:11:37.158Z,30.10
2022-09-28T14:14:11.372Z,30.40
2022-09-28T14:16:41.755Z,30.20
2022-09-28T14:19:24.489Z,30.70
2022-09-28T14:22:22.058Z,30.70
2022-09-28T14:25:03.720Z,30.60
2022-09-28T14:28:08.614Z,30.40
2022-09-28T14:30:43.125Z,30.00
2022-09-28T14:33:37.869Z,30.30
2022-09-28T14:36:09.201Z,30.30
2022-09-28T14:38:55.724Z,30.50
2022-09-28T14:41:32.063Z,30.30
2022-09-28T14:44:00.208Z,30.20
2022-09-28T14:46:32.178Z,30.20
2022-09-28T14:49:21.946Z,29.90
2022-09-28T14:51:56.286Z,29.30
2022-09-28T14:54:27.878Z,28.90
2022-09-28T14:57:25.088Z,28.60
2022-09-28T14:59:55.267Z,29.00
2022-09-28T15:02:32.400Z,29.10
2022-09-28T15:05:20.481Z,29.10
2022-09-28T15:07:53.129Z,29.00
2022-09-28T15:10:29.385Z,29.20
2022-09-28T15:12:58.602Z,29.20
2022-09-28T15:15:33.951Z,29.00
2022-09-28T15:18:42.325Z,29.10
2022-09-28T15:21:14.620Z,29.00
2022-09-28T15:23:44.763Z,28.90
2022-09-28T15:26:29.615Z,29.00
2022-09-28T15:28:58.968Z,29.10
2022-09-28T15:31:31.637Z,29.40
2022-09-28T15:34:00.037Z,29.20
2022-09-28T15:36:32.280Z,28.60
2022-09-28T15:39:04.241Z,28.70
2022-09-28T15:41:34.233Z,29.10
2022-09-28T15:44:07.015Z,29.10
2022-09-28T15:46:39.741Z,29.60
2022-09-28T15:49:08.809Z,29.70
2022-09-28T15:51:50.501Z,29.40
2022-09-28T15:54:25.804Z,29.30
2022-09-28T15:56:58.121Z,29.30
2022-09-28T15:59:33.710Z,29.20
2022-09-28T16:02:14.025Z,29.10
2022-09-28T16:04:58.217Z,29.20
2022-09-28T16:07:56.032Z,29.60
2022-09-28T16:10:35.534Z,29.30
2022-09-28T16:13:19.186Z,29.20
2022-09-28T16:15:54.115Z,28.80
2022-09-28T16:18:22.829Z,29.00
2022-09-28T16:20:54.280Z,28.90
2022-09-28T16:23:25.224Z,29.00
2022-09-28T16:26:02.073Z,29.20
2022-09-28T16:28:39.153Z,29.30
2022-09-28T16:31:13.448Z,29.40
2022-09-28T16:33:52.371Z,29.00
2022-09-28T16:36:21.950Z,28.90
2022-09-28T16:38:50.526Z,29.00
2022-09-28T16:41:23.762Z,29.10
2022-09-28T16:43:56.959Z,29.00
2022-09-28T16:46:32.801Z,28.80
2022-09-28T16:49:01.089Z,28.90
2022-09-28T16:51:29.231Z,28.80
2022-09-28T16:54:11.950Z,28.50
2022-09-28T16:56:40.168Z,28.40
2022-09-28T16:59:13.812Z,28.80
2022-09-28T17:01:42.264Z,28.80
2022-09-28T17:04:10.558Z,28.60
2022-09-28T17:06:54.191Z,28.40
2022-09-28T17:09:23.748Z,28.30
2022-09-28T17:11:51.951Z,28.20
2022-09-28T17:14:19.971Z,28.10
2022-09-28T17:17:07.440Z,27.70
2022-09-28T17:19:37.927Z,27.70
2022-09-28T17:22:06.307Z,27.90
2022-09-28T17:24:34.655Z,27.50
2022-09-28T17:27:03.082Z,27.50
2022-09-28T17:29:31.691Z,27.80
2022-09-28T17:31:59.857Z,28.00
2022-09-28T17:34:28.018Z,27.90
2022-09-28T17:36:56.231Z,27.50
2022-09-28T17:39:24.374Z,27.30
2022-09-28T17:41:52.486Z,27.30
2022-09-28T17:44:20.833Z,27.50
2022-09-28T17:46:49.470Z,27.60
2022-09-28T17:49:17.906Z,27.30
2022-09-28T17:51:46.166Z,27.30
2022-09-28T17:54:14.530Z,27.60
2022-09-28T17:56:42.531Z,27.80
2022-09-28T17:59:14.249Z,27.70
2022-09-28T18:01:42.924Z,27.50
2022-09-28T18:04:23.071Z,27.20
2022-09-28T18:07:00.351Z,27.20
2022-09-28T18:09:28.520Z,27.60
2022-09-28T18:12:01.215Z,27.80
2022-09-28T18:14:29.376Z,27.50
2022-09-28T18:16:57.518Z,27.20
2022-09-28T18:19:28.651Z,27.40
2022-09-28T18:22:00.341Z,27.50
2022-09-28T18:24:28.477Z,27.50
2022-09-28T18:26:57.014Z,27.50
2022-09-28T18:29:25.155Z,27.10
2022-09-28T18:31:53.360Z,27.00
2022-09-28T18:34:21.595Z,27.20
2022-09-28T18:36:49.764Z,27.20
2022-09-28T18:39:17.895Z,27.10
2022-09-28T18:41:46.202Z,26.80
2022-09-28T18:44:14.274Z,26.70
2022-09-28T18:46:43.272Z,26.90
2022-09-28T18:49:11.712Z,27.00
2022-09-28T18:51:40.048Z,27.20
2022-09-28T18:54:08.212Z,27.20
2022-09-28T18:56:36.669Z,26.90
2022-09-28T18:59:11.140Z,26.80
2022-09-28T19:01:40.911Z,26.70
2022-09-28T19:04:11.250Z,27.00
2022-09-28T19:06:42.376Z,27.20
2022-09-28T19:09:11.294Z,27.00
2022-09-28T19:11:39.474Z,26.70
2022-09-28T19:14:08.932Z,26.70
2022-09-28T19:16:37.537Z,26.90
2022-09-28T19:19:05.591Z,27.10
2022-09-28T19:21:34.003Z,27.00
2022-09-28T19:24:03.151Z,26.90
2022-09-28T19:26:32.187Z,26.60
2022-09-28T19:29:00.786Z,26.50
2022-09-28T19:31:30.062Z,26.80
2022-09-28T19:33:58.199Z,26.90
2022-09-28T19:36:27.699Z,26.90
2022-09-28T19:38:57.452Z,26.60
2022-09-28T19:41:28.160Z,26.60
2022-09-28T19:43:56.364Z,26.80
2022-09-28T19:46:24.502Z,27.00
2022-09-28T19:48:52.847Z,26.90
2022-09-28T19:51:21.007Z,26.80
2022-09-28T19:53:49.236Z,26.60
2022-09-28T19:56:17.461Z,26.50
2022-09-28T19:58:45.588Z,26.50
2022-09-28T20:01:13.935Z,26.80
2022-09-28T20:03:42.155Z,26.90
2022-09-28T20:06:12.763Z,26.70
2022-09-28T20:08:44.891Z,26.60
2022-09-28T20:11:13.259Z,26.80
2022-09-28T20:13:41.439Z,26.90
2022-09-28T20:16:12.213Z,27.00
2022-09-28T20:18:41.901Z,27.10
2022-09-28T20:21:13.346Z,27.00
2022-09-28T20:23:44.813Z,26.70
2022-09-28T20:26:13.621Z,26.60
2022-09-28T20:28:42.362Z,26.70
2022-09-28T20:31:16.782Z,27.00
2022-09-28T20:33:45.367Z,27.00
2022-09-28T20:36:19.689Z,26.80
2022-09-28T20:38:50.135Z,26.70
2022-09-28T20:42:21.912Z,27.00
2022-09-28T20:44:50.322Z,26.80
2022-09-28T20:47:18.663Z,26.80
2022-09-28T20:49:46.747Z,27.10
2022-09-28T20:52:15.153Z,27.20
2022-09-28T20:54:43.302Z,27.20
2022-09-28T20:57:11.454Z,27.10
2022-09-28T20:59:40.091Z,26.80
2022-09-28T21:02:11.804Z,26.70
2022-09-28T21:04:40.211Z,26.90
2022-09-28T21:07:09.103Z,27.10
2022-09-28T21:09:38.160Z,27.00
2022-09-28T21:12:06.718Z,26.70
2022-09-28T21:14:35.105Z,26.70
2022-09-28T21:17:03.438Z,27.00
2022-09-28T21:19:31.738Z,26.90
2022-09-28T21:21:59.832Z,27.00
2022-09-28T21:24:28.101Z,26.90
2022-09-28T21:26:56.257Z,26.70
2022-09-28T21:29:24.463Z,26.50
2022-09-28T21:31:52.680Z,26.50
2022-09-28T21:34:21.989Z,26.70
2022-09-28T21:36:50.953Z,26.90
2022-09-28T21:39:19.777Z,26.70
2022-09-28T21:41:48.088Z,26.60
2022-09-28T21:44:16.773Z,26.60
2022-09-28T21:46:44.959Z,26.80
2022-09-28T21:49:13.256Z,26.90
2022-09-28T21:51:41.552Z,26.90
2022-09-28T21:54:09.851Z,26.80
2022-09-28T21:56:40.439Z,26.60
2022-09-28T21:59:08.906Z,26.30
2022-09-28T22:01:37.193Z,26.20
2022-09-28T22:04:05.424Z,26.50
2022-09-28T22:06:33.697Z,26.80
2022-09-28T22:09:01.755Z,26.60
2022-09-28T22:11:30.390Z,26.40
2022-09-28T22:14:00.419Z,26.30
2022-09-28T22:16:31.311Z,26.50
2022-09-28T22:19:00.355Z,26.80
2022-09-28T22:21:30.854Z,26.70
2022-09-28T22:24:03.047Z,26.70
2022-09-28T22:26:31.702Z,26.50
2022-09-28T22:29:02.125Z,26.30
2022-09-28T22:31:33.224Z,26.20
2022-09-28T22:34:02.187Z,26.30
2022-09-28T22:36:30.659Z,26.50
2022-09-28T22:38:59.751Z,26.50
2022-09-28T22:41:27.860Z,26.30
2022-09-28T22:43:56.721Z,26.20
2022-09-28T22:46:27.709Z,26.30
2022-09-28T22:48:58.695Z,26.60
2022-09-28T22:51:29.045Z,26.90
2022-09-28T22:53:57.960Z,26.80
2022-09-28T22:56:26.236Z,26.70
2022-09-28T22:58:54.937Z,26.50
2022-09-28T23:01:25.831Z,26.30
2022-09-28T23:03:55.709Z,26.20
2022-09-28T23:06:26.158Z,26.40
2022-09-28T23:08:54.688Z,26.70
2022-09-28T23:11:23.201Z,26.60
2022-09-28T23:13:56.316Z,26.40
2022-09-28T23:16:25.396Z,26.30
2022-09-28T23:18:55.433Z,26.40
2022-09-28T23:21:25.788Z,26.70
2022-09-28T23:23:59.536Z,26.80
2022-09-28T23:26:30.451Z,26.80
2022-09-28T23:28:59.667Z,26.50
2022-09-28T23:31:33.450Z,26.30
2022-09-28T23:34:05.835Z,26.30
2022-09-28T23:36:34.813Z,26.50
2022-09-28T23:39:03.263Z,26.60
2022-09-28T23:41:31.611Z,26.50
2022-09-28T23:43:59.764Z,26.20
2022-09-28T23:46:28.001Z,26.10
2022-09-28T23:48:56.271Z,26.30
2022-09-28T23:51:24.433Z,26.50
2022-09-28T23:53:52.764Z,26.50
2022-09-28T23:56:21.055Z,26.60
2022-09-28T23:58:49.208Z,26.40
